sensor_id;sensor_type;location;lat;lon;timestamp;P1;durP1;ratioP1;P2;durP2;ratioP2
61962;SDS011;47927;42.646;23.096;2023-07-20T00:00:48;11.73;;;2.08;;
61962;SDS011;47927;42.646;23.096;2023-07-20T00:03:15;7.93;;;2.10;;
61962;SDS011;47927;42.646;23.096;2023-07-20T00:05:44;7.20;;;2.00;;
61962;SDS011;47927;42.646;23.096;2023-07-20T00:08:10;7.22;;;2.30;;
61962;SDS011;47927;42.646;23.096;2023-07-20T00:10:36;7.82;;;2.83;;
61962;SDS011;47927;42.646;23.096;2023-07-20T00:13:02;5.35;;;1.98;;
61962;SDS011;47927;42.646;23.096;2023-07-20T00:15:27;6.75;;;2.00;;
61962;SDS011;47927;42.646;23.096;2023-07-20T00:17:53;7.22;;;2.20;;
61962;SDS011;47927;42.646;23.096;2023-07-20T00:20:18;7.15;;;2.30;;
61962;SDS011;47927;42.646;23.096;2023-07-20T00:22:44;7.35;;;2.20;;
61962;SDS011;47927;42.646;23.096;2023-07-20T00:25:09;5.43;;;2.30;;
61962;SDS011;47927;42.646;23.096;2023-07-20T00:27:37;6.90;;;2.15;;
61962;SDS011;47927;42.646;23.096;2023-07-20T00:30:03;5.90;;;2.10;;
61962;SDS011;47927;42.646;23.096;2023-07-20T00:32:30;9.93;;;2.45;;
61962;SDS011;47927;42.646;23.096;2023-07-20T00:34:56;7.93;;;2.47;;
61962;SDS011;47927;42.646;23.096;2023-07-20T00:37:22;8.20;;;2.28;;
61962;SDS011;47927;42.646;23.096;2023-07-20T00:39:47;7.22;;;1.95;;
61962;SDS011;47927;42.646;23.096;2023-07-20T00:42:13;5.80;;;1.90;;
61962;SDS011;47927;42.646;23.096;2023-07-20T00:44:38;7.82;;;2.10;;
61962;SDS011;47927;42.646;23.096;2023-07-20T00:47:04;9.35;;;2.20;;
61962;SDS011;47927;42.646;23.096;2023-07-20T00:49:32;7.43;;;2.10;;
61962;SDS011;47927;42.646;23.096;2023-07-20T00:51:58;8.88;;;3.05;;
61962;SDS011;47927;42.646;23.096;2023-07-20T00:54:26;11.65;;;2.70;;
61962;SDS011;47927;42.646;23.096;2023-07-20T00:56:53;5.78;;;2.00;;
61962;SDS011;47927;42.646;23.096;2023-07-20T00:59:18;8.70;;;2.75;;
61962;SDS011;47927;42.646;23.096;2023-07-20T01:01:44;5.93;;;2.35;;
61962;SDS011;47927;42.646;23.096;2023-07-20T01:04:10;8.77;;;2.30;;
61962;SDS011;47927;42.646;23.096;2023-07-20T01:09:22;6.07;;;2.30;;
61962;SDS011;47927;42.646;23.096;2023-07-20T01:11:59;7.05;;;2.78;;
61962;SDS011;47927;42.646;23.096;2023-07-20T01:14:28;6.30;;;2.47;;
61962;SDS011;47927;42.646;23.096;2023-07-20T01:16:55;3.78;;;2.00;;
61962;SDS011;47927;42.646;23.096;2023-07-20T01:19:20;4.97;;;2.00;;
61962;SDS011;47927;42.646;23.096;2023-07-20T01:21:51;8.45;;;2.72;;
61962;SDS011;47927;42.646;23.096;2023-07-20T01:32:24;6.60;;;1.90;;
61962;SDS011;47927;42.646;23.096;2023-07-20T01:34:52;8.02;;;2.38;;
61962;SDS011;47927;42.646;23.096;2023-07-20T01:37:20;8.25;;;2.35;;
61962;SDS011;47927;42.646;23.096;2023-07-20T01:39:50;5.25;;;2.00;;
61962;SDS011;47927;42.646;23.096;2023-07-20T01:44:46;6.32;;;2.80;;
61962;SDS011;47927;42.646;23.096;2023-07-20T01:47:11;6.38;;;2.60;;
61962;SDS011;47927;42.646;23.096;2023-07-20T01:49:37;7.55;;;2.30;;
61962;SDS011;47927;42.646;23.096;2023-07-20T01:52:02;3.95;;;1.98;;
61962;SDS011;47927;42.646;23.096;2023-07-20T01:54:29;7.53;;;2.42;;
61962;SDS011;47927;42.646;23.096;2023-07-20T01:56:54;10.00;;;2.30;;
61962;SDS011;47927;42.646;23.096;2023-07-20T01:59:20;7.53;;;2.28;;
61962;SDS011;47927;42.646;23.096;2023-07-20T02:01:46;6.30;;;2.33;;
61962;SDS011;47927;42.646;23.096;2023-07-20T02:04:11;5.25;;;2.33;;
61962;SDS011;47927;42.646;23.096;2023-07-20T02:06:37;6.65;;;2.50;;
61962;SDS011;47927;42.646;23.096;2023-07-20T02:09:03;4.80;;;2.10;;
61962;SDS011;47927;42.646;23.096;2023-07-20T02:11:30;10.45;;;2.50;;
61962;SDS011;47927;42.646;23.096;2023-07-20T02:13:56;7.10;;;3.30;;
61962;SDS011;47927;42.646;23.096;2023-07-20T02:16:21;5.78;;;2.50;;
61962;SDS011;47927;42.646;23.096;2023-07-20T02:18:47;10.45;;;2.42;;
61962;SDS011;47927;42.646;23.096;2023-07-20T02:21:12;6.38;;;2.40;;
61962;SDS011;47927;42.646;23.096;2023-07-20T02:23:38;6.40;;;2.50;;
61962;SDS011;47927;42.646;23.096;2023-07-20T02:26:03;8.23;;;2.88;;
61962;SDS011;47927;42.646;23.096;2023-07-20T02:28:29;7.45;;;2.30;;
61962;SDS011;47927;42.646;23.096;2023-07-20T02:30:54;8.35;;;3.50;;
61962;SDS011;47927;42.646;23.096;2023-07-20T02:33:20;7.07;;;2.60;;
61962;SDS011;47927;42.646;23.096;2023-07-20T02:35:46;12.15;;;2.90;;
61962;SDS011;47927;42.646;23.096;2023-07-20T02:38:12;9.55;;;2.70;;
61962;SDS011;47927;42.646;23.096;2023-07-20T02:40:38;9.88;;;3.03;;
61962;SDS011;47927;42.646;23.096;2023-07-20T02:43:03;5.78;;;2.38;;
61962;SDS011;47927;42.646;23.096;2023-07-20T02:45:29;12.45;;;3.40;;
61962;SDS011;47927;42.646;23.096;2023-07-20T02:47:54;8.38;;;3.03;;
61962;SDS011;47927;42.646;23.096;2023-07-20T02:50:20;8.10;;;3.15;;
61962;SDS011;47927;42.646;23.096;2023-07-20T02:52:45;12.98;;;3.35;;
61962;SDS011;47927;42.646;23.096;2023-07-20T02:55:11;6.40;;;3.50;;
61962;SDS011;47927;42.646;23.096;2023-07-20T02:57:36;11.63;;;3.17;;
61962;SDS011;47927;42.646;23.096;2023-07-20T03:00:02;11.45;;;3.25;;
61962;SDS011;47927;42.646;23.096;2023-07-20T03:02:30;7.45;;;3.15;;
61962;SDS011;47927;42.646;23.096;2023-07-20T03:04:56;15.95;;;3.45;;
61962;SDS011;47927;42.646;23.096;2023-07-20T03:07:24;8.07;;;3.33;;
61962;SDS011;47927;42.646;23.096;2023-07-20T03:09:51;11.27;;;3.60;;
61962;SDS011;47927;42.646;23.096;2023-07-20T03:12:17;14.02;;;3.30;;
61962;SDS011;47927;42.646;23.096;2023-07-20T03:14:42;8.55;;;3.15;;
61962;SDS011;47927;42.646;23.096;2023-07-20T03:17:08;11.20;;;2.83;;
61962;SDS011;47927;42.646;23.096;2023-07-20T03:19:33;9.60;;;3.03;;
61962;SDS011;47927;42.646;23.096;2023-07-20T03:21:59;8.75;;;3.10;;
61962;SDS011;47927;42.646;23.096;2023-07-20T03:24:25;8.55;;;2.90;;
61962;SDS011;47927;42.646;23.096;2023-07-20T03:26:51;8.90;;;3.10;;
61962;SDS011;47927;42.646;23.096;2023-07-20T03:29:17;6.20;;;2.92;;
61962;SDS011;47927;42.646;23.096;2023-07-20T03:31:46;9.48;;;3.17;;
61962;SDS011;47927;42.646;23.096;2023-07-20T03:34:11;8.43;;;3.03;;
61962;SDS011;47927;42.646;23.096;2023-07-20T03:36:37;10.38;;;3.42;;
61962;SDS011;47927;42.646;23.096;2023-07-20T03:39:02;11.70;;;3.40;;
61962;SDS011;47927;42.646;23.096;2023-07-20T03:41:28;7.28;;;2.95;;
61962;SDS011;47927;42.646;23.096;2023-07-20T03:43:54;8.73;;;3.35;;
61962;SDS011;47927;42.646;23.096;2023-07-20T03:46:19;8.20;;;3.40;;
61962;SDS011;47927;42.646;23.096;2023-07-20T03:48:45;9.35;;;2.97;;
61962;SDS011;47927;42.646;23.096;2023-07-20T03:51:10;4.75;;;2.72;;
61962;SDS011;47927;42.646;23.096;2023-07-20T03:53:36;7.97;;;3.03;;
61962;SDS011;47927;42.646;23.096;2023-07-20T03:56:02;10.55;;;3.20;;
61962;SDS011;47927;42.646;23.096;2023-07-20T03:58:28;7.93;;;3.00;;
61962;SDS011;47927;42.646;23.096;2023-07-20T04:00:54;12.23;;;3.03;;
61962;SDS011;47927;42.646;23.096;2023-07-20T04:03:20;7.88;;;2.92;;
61962;SDS011;47927;42.646;23.096;2023-07-20T04:05:48;7.00;;;2.70;;
61962;SDS011;47927;42.646;23.096;2023-07-20T04:08:13;8.82;;;2.70;;
61962;SDS011;47927;42.646;23.096;2023-07-20T04:10:39;6.05;;;2.80;;
61962;SDS011;47927;42.646;23.096;2023-07-20T04:13:05;7.90;;;2.67;;
61962;SDS011;47927;42.646;23.096;2023-07-20T04:15:31;5.20;;;2.78;;
61962;SDS011;47927;42.646;23.096;2023-07-20T04:17:56;6.13;;;3.08;;
61962;SDS011;47927;42.646;23.096;2023-07-20T04:20:23;5.50;;;2.70;;
61962;SDS011;47927;42.646;23.096;2023-07-20T04:22:49;6.05;;;2.50;;
61962;SDS011;47927;42.646;23.096;2023-07-20T04:25:15;7.13;;;3.00;;
61962;SDS011;47927;42.646;23.096;2023-07-20T04:27:41;6.05;;;2.80;;
61962;SDS011;47927;42.646;23.096;2023-07-20T04:30:07;8.45;;;3.20;;
61962;SDS011;47927;42.646;23.096;2023-07-20T04:32:34;8.30;;;3.00;;
61962;SDS011;47927;42.646;23.096;2023-07-20T04:35:05;9.20;;;3.35;;
61962;SDS011;47927;42.646;23.096;2023-07-20T04:37:31;7.45;;;2.75;;
61962;SDS011;47927;42.646;23.096;2023-07-20T04:39:59;12.75;;;3.03;;
61962;SDS011;47927;42.646;23.096;2023-07-20T04:42:25;7.30;;;3.20;;
61962;SDS011;47927;42.646;23.096;2023-07-20T04:44:50;8.23;;;3.22;;
61962;SDS011;47927;42.646;23.096;2023-07-20T04:47:16;11.15;;;2.90;;
61962;SDS011;47927;42.646;23.096;2023-07-20T04:49:41;9.02;;;3.47;;
61962;SDS011;47927;42.646;23.096;2023-07-20T04:52:07;11.80;;;4.07;;
61962;SDS011;47927;42.646;23.096;2023-07-20T04:54:33;10.40;;;3.88;;
61962;SDS011;47927;42.646;23.096;2023-07-20T04:56:58;10.55;;;3.10;;
61962;SDS011;47927;42.646;23.096;2023-07-20T04:59:24;10.02;;;3.80;;
61962;SDS011;47927;42.646;23.096;2023-07-20T05:01:50;9.93;;;4.00;;
61962;SDS011;47927;42.646;23.096;2023-07-20T05:04:16;12.07;;;3.70;;
61962;SDS011;47927;42.646;23.096;2023-07-20T05:06:42;13.05;;;3.75;;
61962;SDS011;47927;42.646;23.096;2023-07-20T05:09:08;12.60;;;3.50;;
61962;SDS011;47927;42.646;23.096;2023-07-20T05:11:34;11.80;;;3.60;;
61962;SDS011;47927;42.646;23.096;2023-07-20T05:14:00;7.10;;;3.42;;
61962;SDS011;47927;42.646;23.096;2023-07-20T05:16:25;16.17;;;4.30;;
61962;SDS011;47927;42.646;23.096;2023-07-20T05:18:51;15.10;;;4.95;;
61962;SDS011;47927;42.646;23.096;2023-07-20T05:21:17;7.55;;;4.03;;
61962;SDS011;47927;42.646;23.096;2023-07-20T05:23:43;11.63;;;4.38;;
61962;SDS011;47927;42.646;23.096;2023-07-20T05:26:11;14.90;;;5.65;;
61962;SDS011;47927;42.646;23.096;2023-07-20T05:28:36;11.57;;;4.35;;
61962;SDS011;47927;42.646;23.096;2023-07-20T05:31:02;14.77;;;5.43;;
61962;SDS011;47927;42.646;23.096;2023-07-20T05:33:28;14.38;;;4.88;;
61962;SDS011;47927;42.646;23.096;2023-07-20T05:35:54;14.68;;;4.72;;
61962;SDS011;47927;42.646;23.096;2023-07-20T05:38:19;11.32;;;4.00;;
61962;SDS011;47927;42.646;23.096;2023-07-20T05:40:45;12.93;;;5.13;;
61962;SDS011;47927;42.646;23.096;2023-07-20T05:43:12;13.82;;;4.68;;
61962;SDS011;47927;42.646;23.096;2023-07-20T05:45:41;14.20;;;5.38;;
61962;SDS011;47927;42.646;23.096;2023-07-20T05:48:06;17.45;;;4.57;;
61962;SDS011;47927;42.646;23.096;2023-07-20T05:50:34;17.13;;;5.32;;
61962;SDS011;47927;42.646;23.096;2023-07-20T05:53:00;19.35;;;5.50;;
61962;SDS011;47927;42.646;23.096;2023-07-20T05:55:27;14.15;;;5.20;;
61962;SDS011;47927;42.646;23.096;2023-07-20T05:57:52;16.33;;;5.28;;
61962;SDS011;47927;42.646;23.096;2023-07-20T06:00:20;19.17;;;5.93;;
61962;SDS011;47927;42.646;23.096;2023-07-20T06:02:54;13.40;;;4.90;;
61962;SDS011;47927;42.646;23.096;2023-07-20T06:05:20;13.23;;;4.78;;
61962;SDS011;47927;42.646;23.096;2023-07-20T06:07:47;14.70;;;5.15;;
61962;SDS011;47927;42.646;23.096;2023-07-20T06:10:12;21.20;;;5.78;;
61962;SDS011;47927;42.646;23.096;2023-07-20T06:12:38;17.30;;;5.30;;
61962;SDS011;47927;42.646;23.096;2023-07-20T06:15:04;18.08;;;4.85;;
61962;SDS011;47927;42.646;23.096;2023-07-20T06:17:30;14.10;;;4.60;;
61962;SDS011;47927;42.646;23.096;2023-07-20T06:19:56;15.00;;;5.45;;
61962;SDS011;47927;42.646;23.096;2023-07-20T06:22:21;14.18;;;5.18;;
61962;SDS011;47927;42.646;23.096;2023-07-20T06:24:47;20.05;;;4.53;;
61962;SDS011;47927;42.646;23.096;2023-07-20T06:27:12;21.02;;;5.03;;
61962;SDS011;47927;42.646;23.096;2023-07-20T06:29:38;17.92;;;4.80;;
61962;SDS011;47927;42.646;23.096;2023-07-20T06:32:04;14.57;;;4.88;;
61962;SDS011;47927;42.646;23.096;2023-07-20T06:34:30;10.95;;;4.40;;
61962;SDS011;47927;42.646;23.096;2023-07-20T06:36:55;13.07;;;4.32;;
61962;SDS011;47927;42.646;23.096;2023-07-20T06:39:21;13.43;;;4.03;;
61962;SDS011;47927;42.646;23.096;2023-07-20T06:41:47;11.00;;;4.43;;
61962;SDS011;47927;42.646;23.096;2023-07-20T06:44:13;21.67;;;13.48;;
61962;SDS011;47927;42.646;23.096;2023-07-20T06:46:38;16.02;;;9.70;;
61962;SDS011;47927;42.646;23.096;2023-07-20T06:49:06;10.90;;;6.93;;
61962;SDS011;47927;42.646;23.096;2023-07-20T06:51:33;15.23;;;7.30;;
61962;SDS011;47927;42.646;23.096;2023-07-20T06:53:58;14.43;;;6.10;;
61962;SDS011;47927;42.646;23.096;2023-07-20T06:56:24;15.05;;;5.93;;
61962;SDS011;47927;42.646;23.096;2023-07-20T06:58:49;13.25;;;5.93;;
61962;SDS011;47927;42.646;23.096;2023-07-20T07:01:15;14.98;;;5.25;;
61962;SDS011;47927;42.646;23.096;2023-07-20T07:03:40;12.93;;;4.60;;
61962;SDS011;47927;42.646;23.096;2023-07-20T07:06:06;15.43;;;4.20;;
61962;SDS011;47927;42.646;23.096;2023-07-20T07:08:31;16.95;;;4.72;;
61962;SDS011;47927;42.646;23.096;2023-07-20T07:10:57;20.08;;;4.60;;
61962;SDS011;47927;42.646;23.096;2023-07-20T07:13:22;26.08;;;6.88;;
61962;SDS011;47927;42.646;23.096;2023-07-20T07:15:48;26.13;;;5.80;;
61962;SDS011;47927;42.646;23.096;2023-07-20T07:18:14;22.92;;;5.18;;
61962;SDS011;47927;42.646;23.096;2023-07-20T07:20:39;26.83;;;4.95;;
61962;SDS011;47927;42.646;23.096;2023-07-20T07:23:05;18.23;;;5.18;;
61962;SDS011;47927;42.646;23.096;2023-07-20T07:25:30;15.38;;;5.40;;
61962;SDS011;47927;42.646;23.096;2023-07-20T07:27:57;13.95;;;4.82;;
61962;SDS011;47927;42.646;23.096;2023-07-20T07:30:23;11.63;;;4.03;;
61962;SDS011;47927;42.646;23.096;2023-07-20T07:32:49;15.25;;;4.03;;
61962;SDS011;47927;42.646;23.096;2023-07-20T07:35:15;10.63;;;3.70;;
61962;SDS011;47927;42.646;23.096;2023-07-20T07:37:40;11.60;;;3.20;;
61962;SDS011;47927;42.646;23.096;2023-07-20T07:40:06;8.65;;;2.60;;
61962;SDS011;47927;42.646;23.096;2023-07-20T07:42:33;7.90;;;3.00;;
61962;SDS011;47927;42.646;23.096;2023-07-20T07:44:58;5.35;;;2.85;;
61962;SDS011;47927;42.646;23.096;2023-07-20T07:47:24;11.00;;;3.55;;
61962;SDS011;47927;42.646;23.096;2023-07-20T07:49:49;8.27;;;2.90;;
61962;SDS011;47927;42.646;23.096;2023-07-20T07:52:15;12.70;;;2.95;;
61962;SDS011;47927;42.646;23.096;2023-07-20T07:54:40;10.38;;;3.15;;
61962;SDS011;47927;42.646;23.096;2023-07-20T07:57:06;8.82;;;2.90;;
61962;SDS011;47927;42.646;23.096;2023-07-20T07:59:32;5.88;;;2.90;;
61962;SDS011;47927;42.646;23.096;2023-07-20T08:02:02;6.30;;;3.55;;
61962;SDS011;47927;42.646;23.096;2023-07-20T08:04:29;4.93;;;2.35;;
61962;SDS011;47927;42.646;23.096;2023-07-20T08:06:55;5.82;;;4.10;;
61962;SDS011;47927;42.646;23.096;2023-07-20T08:09:21;6.90;;;3.30;;
61962;SDS011;47927;42.646;23.096;2023-07-20T08:11:46;7.10;;;3.05;;
61962;SDS011;47927;42.646;23.096;2023-07-20T08:14:13;7.47;;;2.67;;
61962;SDS011;47927;42.646;23.096;2023-07-20T08:16:39;7.55;;;2.25;;
61962;SDS011;47927;42.646;23.096;2023-07-20T08:19:04;11.25;;;3.20;;
61962;SDS011;47927;42.646;23.096;2023-07-20T08:21:30;6.10;;;2.88;;
61962;SDS011;47927;42.646;23.096;2023-07-20T08:23:55;7.10;;;2.95;;
61962;SDS011;47927;42.646;23.096;2023-07-20T08:26:21;9.57;;;2.90;;
61962;SDS011;47927;42.646;23.096;2023-07-20T08:28:47;5.57;;;2.13;;
61962;SDS011;47927;42.646;23.096;2023-07-20T08:31:13;6.25;;;2.90;;
61962;SDS011;47927;42.646;23.096;2023-07-20T08:33:39;7.43;;;3.20;;
61962;SDS011;47927;42.646;23.096;2023-07-20T08:36:05;6.57;;;2.10;;
61962;SDS011;47927;42.646;23.096;2023-07-20T08:38:31;7.10;;;2.60;;
61962;SDS011;47927;42.646;23.096;2023-07-20T08:40:56;6.80;;;2.33;;
61962;SDS011;47927;42.646;23.096;2023-07-20T08:43:24;8.63;;;2.97;;
61962;SDS011;47927;42.646;23.096;2023-07-20T08:45:51;7.05;;;2.10;;
61962;SDS011;47927;42.646;23.096;2023-07-20T08:48:17;6.40;;;2.10;;
61962;SDS011;47927;42.646;23.096;2023-07-20T08:50:44;7.80;;;2.33;;
61962;SDS011;47927;42.646;23.096;2023-07-20T08:53:11;9.23;;;3.75;;
61962;SDS011;47927;42.646;23.096;2023-07-20T08:55:38;6.00;;;2.40;;
61962;SDS011;47927;42.646;23.096;2023-07-20T08:58:05;5.72;;;2.40;;
61962;SDS011;47927;42.646;23.096;2023-07-20T09:00:34;11.57;;;3.28;;
61962;SDS011;47927;42.646;23.096;2023-07-20T09:03:00;6.55;;;2.40;;
61962;SDS011;47927;42.646;23.096;2023-07-20T09:07:53;6.78;;;2.53;;
61962;SDS011;47927;42.646;23.096;2023-07-20T09:10:23;9.57;;;2.42;;
61962;SDS011;47927;42.646;23.096;2023-07-20T09:12:49;7.40;;;2.13;;
61962;SDS011;47927;42.646;23.096;2023-07-20T09:15:15;11.13;;;2.60;;
61962;SDS011;47927;42.646;23.096;2023-07-20T09:17:46;11.80;;;2.10;;
61962;SDS011;47927;42.646;23.096;2023-07-20T09:20:14;4.63;;;2.50;;
61962;SDS011;47927;42.646;23.096;2023-07-20T09:22:40;6.57;;;2.50;;
61962;SDS011;47927;42.646;23.096;2023-07-20T09:25:14;6.70;;;2.28;;
61962;SDS011;47927;42.646;23.096;2023-07-20T09:27:41;7.47;;;2.50;;
61962;SDS011;47927;42.646;23.096;2023-07-20T09:30:09;7.63;;;2.17;;
61962;SDS011;47927;42.646;23.096;2023-07-20T09:32:43;6.13;;;2.70;;
61962;SDS011;47927;42.646;23.096;2023-07-20T09:35:13;6.38;;;2.25;;
61962;SDS011;47927;42.646;23.096;2023-07-20T09:37:39;7.88;;;2.58;;
61962;SDS011;47927;42.646;23.096;2023-07-20T09:40:08;9.13;;;3.70;;
61962;SDS011;47927;42.646;23.096;2023-07-20T09:42:35;7.47;;;2.30;;
61962;SDS011;47927;42.646;23.096;2023-07-20T09:45:01;6.57;;;1.90;;
61962;SDS011;47927;42.646;23.096;2023-07-20T09:47:27;6.53;;;2.08;;
61962;SDS011;47927;42.646;23.096;2023-07-20T09:50:00;5.13;;;1.60;;
61962;SDS011;47927;42.646;23.096;2023-07-20T09:52:26;6.43;;;1.67;;
61962;SDS011;47927;42.646;23.096;2023-07-20T09:54:52;5.68;;;2.25;;
61962;SDS011;47927;42.646;23.096;2023-07-20T09:57:19;6.50;;;1.90;;
61962;SDS011;47927;42.646;23.096;2023-07-20T09:59:46;5.75;;;1.88;;
61962;SDS011;47927;42.646;23.096;2023-07-20T10:02:15;8.45;;;2.60;;
61962;SDS011;47927;42.646;23.096;2023-07-20T10:04:46;6.28;;;1.90;;
61962;SDS011;47927;42.646;23.096;2023-07-20T10:07:15;10.55;;;2.00;;
61962;SDS011;47927;42.646;23.096;2023-07-20T10:09:42;5.15;;;1.90;;
61962;SDS011;47927;42.646;23.096;2023-07-20T10:12:09;7.47;;;2.22;;
61962;SDS011;47927;42.646;23.096;2023-07-20T10:14:38;4.15;;;1.92;;
61962;SDS011;47927;42.646;23.096;2023-07-20T10:17:06;10.20;;;2.30;;
61962;SDS011;47927;42.646;23.096;2023-07-20T10:19:39;8.88;;;2.35;;
61962;SDS011;47927;42.646;23.096;2023-07-20T10:22:29;6.68;;;2.33;;
61962;SDS011;47927;42.646;23.096;2023-07-20T10:25:00;7.32;;;1.98;;
61962;SDS011;47927;42.646;23.096;2023-07-20T10:27:26;9.18;;;2.10;;
61962;SDS011;47927;42.646;23.096;2023-07-20T10:29:52;6.30;;;1.90;;
61962;SDS011;47927;42.646;23.096;2023-07-20T10:32:20;5.93;;;2.40;;
61962;SDS011;47927;42.646;23.096;2023-07-20T10:34:53;5.28;;;2.10;;
61962;SDS011;47927;42.646;23.096;2023-07-20T10:40:32;6.53;;;2.55;;
61962;SDS011;47927;42.646;23.096;2023-07-20T10:43:04;6.55;;;2.30;;
61962;SDS011;47927;42.646;23.096;2023-07-20T10:45:51;7.03;;;2.25;;
61962;SDS011;47927;42.646;23.096;2023-07-20T10:51:08;7.43;;;2.85;;
61962;SDS011;47927;42.646;23.096;2023-07-20T10:53:34;8.68;;;2.80;;
61962;SDS011;47927;42.646;23.096;2023-07-20T10:56:33;9.30;;;3.30;;
61962;SDS011;47927;42.646;23.096;2023-07-20T10:58:58;10.75;;;3.50;;
61962;SDS011;47927;42.646;23.096;2023-07-20T11:01:36;9.15;;;3.13;;
61962;SDS011;47927;42.646;23.096;2023-07-20T11:04:40;7.32;;;2.95;;
61962;SDS011;47927;42.646;23.096;2023-07-20T11:07:09;8.88;;;3.10;;
61962;SDS011;47927;42.646;23.096;2023-07-20T11:09:38;13.45;;;3.20;;
61962;SDS011;47927;42.646;23.096;2023-07-20T11:14:44;8.93;;;3.85;;
61962;SDS011;47927;42.646;23.096;2023-07-20T11:17:37;7.43;;;3.30;;
61962;SDS011;47927;42.646;23.096;2023-07-20T11:20:04;8.65;;;2.95;;
61962;SDS011;47927;42.646;23.096;2023-07-20T11:22:30;10.05;;;2.72;;
61962;SDS011;47927;42.646;23.096;2023-07-20T11:24:57;9.65;;;3.28;;
61962;SDS011;47927;42.646;23.096;2023-07-20T11:27:23;13.25;;;3.38;;
61962;SDS011;47927;42.646;23.096;2023-07-20T11:29:49;6.78;;;2.30;;
61962;SDS011;47927;42.646;23.096;2023-07-20T11:32:24;9.02;;;2.63;;
61962;SDS011;47927;42.646;23.096;2023-07-20T11:34:50;6.25;;;2.65;;
61962;SDS011;47927;42.646;23.096;2023-07-20T11:37:16;9.32;;;2.50;;
61962;SDS011;47927;42.646;23.096;2023-07-20T11:39:43;11.10;;;3.17;;
61962;SDS011;47927;42.646;23.096;2023-07-20T11:42:08;5.75;;;2.20;;
61962;SDS011;47927;42.646;23.096;2023-07-20T11:44:34;9.40;;;2.33;;
61962;SDS011;47927;42.646;23.096;2023-07-20T11:49:29;11.25;;;2.70;;
61962;SDS011;47927;42.646;23.096;2023-07-20T11:51:55;7.20;;;2.60;;
61962;SDS011;47927;42.646;23.096;2023-07-20T11:54:22;8.10;;;2.88;;
61962;SDS011;47927;42.646;23.096;2023-07-20T11:56:53;7.80;;;2.15;;
61962;SDS011;47927;42.646;23.096;2023-07-20T11:59:20;8.45;;;2.53;;
61962;SDS011;47927;42.646;23.096;2023-07-20T12:01:46;6.90;;;2.45;;
61962;SDS011;47927;42.646;23.096;2023-07-20T12:04:12;10.38;;;3.15;;
61962;SDS011;47927;42.646;23.096;2023-07-20T12:06:37;7.50;;;2.90;;
61962;SDS011;47927;42.646;23.096;2023-07-20T12:09:03;7.38;;;3.10;;
61962;SDS011;47927;42.646;23.096;2023-07-20T12:13:57;8.65;;;3.00;;
61962;SDS011;47927;42.646;23.096;2023-07-20T12:16:26;7.85;;;2.72;;
61962;SDS011;47927;42.646;23.096;2023-07-20T12:18:58;7.00;;;2.30;;
61962;SDS011;47927;42.646;23.096;2023-07-20T12:24:15;7.55;;;2.67;;
61962;SDS011;47927;42.646;23.096;2023-07-20T12:26:43;6.57;;;2.83;;
61962;SDS011;47927;42.646;23.096;2023-07-20T12:29:08;11.52;;;2.75;;
61962;SDS011;47927;42.646;23.096;2023-07-20T12:31:36;10.82;;;3.38;;
61962;SDS011;47927;42.646;23.096;2023-07-20T12:34:01;9.27;;;2.97;;
61962;SDS011;47927;42.646;23.096;2023-07-20T12:36:27;7.38;;;2.53;;
61962;SDS011;47927;42.646;23.096;2023-07-20T12:38:53;9.80;;;2.85;;
61962;SDS011;47927;42.646;23.096;2023-07-20T12:41:18;8.80;;;2.70;;
61962;SDS011;47927;42.646;23.096;2023-07-20T12:43:45;11.32;;;2.53;;
61962;SDS011;47927;42.646;23.096;2023-07-20T12:46:11;8.30;;;2.42;;
61962;SDS011;47927;42.646;23.096;2023-07-20T12:48:38;9.40;;;2.92;;
61962;SDS011;47927;42.646;23.096;2023-07-20T12:51:06;6.40;;;2.30;;
61962;SDS011;47927;42.646;23.096;2023-07-20T12:53:32;7.45;;;2.85;;
61962;SDS011;47927;42.646;23.096;2023-07-20T12:55:58;6.68;;;2.50;;
61962;SDS011;47927;42.646;23.096;2023-07-20T12:58:25;7.25;;;2.80;;
61962;SDS011;47927;42.646;23.096;2023-07-20T13:00:50;8.70;;;3.15;;
61962;SDS011;47927;42.646;23.096;2023-07-20T13:03:16;11.75;;;3.22;;
61962;SDS011;47927;42.646;23.096;2023-07-20T13:05:44;8.82;;;3.72;;
61962;SDS011;47927;42.646;23.096;2023-07-20T13:08:09;9.05;;;3.40;;
61962;SDS011;47927;42.646;23.096;2023-07-20T13:10:35;9.57;;;4.40;;
61962;SDS011;47927;42.646;23.096;2023-07-20T13:13:01;6.93;;;2.97;;
61962;SDS011;47927;42.646;23.096;2023-07-20T13:15:30;9.98;;;2.83;;
61962;SDS011;47927;42.646;23.096;2023-07-20T13:17:59;10.02;;;2.83;;
61962;SDS011;47927;42.646;23.096;2023-07-20T13:20:25;8.40;;;3.13;;
61962;SDS011;47927;42.646;23.096;2023-07-20T13:22:51;9.25;;;3.13;;
61962;SDS011;47927;42.646;23.096;2023-07-20T13:25:17;9.85;;;3.05;;
61962;SDS011;47927;42.646;23.096;2023-07-20T13:27:44;9.90;;;3.47;;
61962;SDS011;47927;42.646;23.096;2023-07-20T13:30:10;11.45;;;2.70;;
61962;SDS011;47927;42.646;23.096;2023-07-20T13:32:41;7.50;;;2.67;;
61962;SDS011;47927;42.646;23.096;2023-07-20T13:35:13;6.28;;;2.22;;
61962;SDS011;47927;42.646;23.096;2023-07-20T13:40:05;11.38;;;2.85;;
61962;SDS011;47927;42.646;23.096;2023-07-20T13:42:34;11.20;;;2.83;;
61962;SDS011;47927;42.646;23.096;2023-07-20T13:45:07;9.35;;;2.55;;
61962;SDS011;47927;42.646;23.096;2023-07-20T13:47:33;9.02;;;2.47;;
61962;SDS011;47927;42.646;23.096;2023-07-20T13:49:58;10.57;;;4.13;;
61962;SDS011;47927;42.646;23.096;2023-07-20T13:52:24;8.48;;;2.72;;
61962;SDS011;47927;42.646;23.096;2023-07-20T13:54:49;10.18;;;2.33;;
61962;SDS011;47927;42.646;23.096;2023-07-20T13:57:15;9.50;;;2.65;;
61962;SDS011;47927;42.646;23.096;2023-07-20T13:59:41;7.78;;;2.67;;
61962;SDS011;47927;42.646;23.096;2023-07-20T14:02:07;6.38;;;2.40;;
61962;SDS011;47927;42.646;23.096;2023-07-20T14:04:32;8.02;;;2.25;;
61962;SDS011;47927;42.646;23.096;2023-07-20T14:06:58;5.63;;;2.08;;
61962;SDS011;47927;42.646;23.096;2023-07-20T14:09:23;8.50;;;2.35;;
61962;SDS011;47927;42.646;23.096;2023-07-20T14:20:36;6.53;;;1.95;;
61962;SDS011;47927;42.646;23.096;2023-07-20T14:23:01;6.03;;;1.98;;
61962;SDS011;47927;42.646;23.096;2023-07-20T14:25:27;7.30;;;2.55;;
61962;SDS011;47927;42.646;23.096;2023-07-20T14:27:52;4.43;;;2.30;;
61962;SDS011;47927;42.646;23.096;2023-07-20T14:30:18;6.85;;;2.45;;
61962;SDS011;47927;42.646;23.096;2023-07-20T14:32:43;9.25;;;2.92;;
61962;SDS011;47927;42.646;23.096;2023-07-20T14:35:09;8.07;;;2.20;;
61962;SDS011;47927;42.646;23.096;2023-07-20T14:37:34;5.43;;;2.10;;
61962;SDS011;47927;42.646;23.096;2023-07-20T14:40:00;7.38;;;1.95;;
61962;SDS011;47927;42.646;23.096;2023-07-20T14:42:26;7.57;;;2.10;;
61962;SDS011;47927;42.646;23.096;2023-07-20T14:44:51;5.03;;;2.55;;
61962;SDS011;47927;42.646;23.096;2023-07-20T14:47:17;10.07;;;2.92;;
61962;SDS011;47927;42.646;23.096;2023-07-20T14:49:42;6.00;;;1.75;;
61962;SDS011;47927;42.646;23.096;2023-07-20T14:52:08;5.85;;;1.80;;
61962;SDS011;47927;42.646;23.096;2023-07-20T14:54:35;9.00;;;3.33;;
61962;SDS011;47927;42.646;23.096;2023-07-20T14:57:00;9.75;;;2.25;;
61962;SDS011;47927;42.646;23.096;2023-07-20T14:59:26;4.57;;;1.85;;
61962;SDS011;47927;42.646;23.096;2023-07-20T15:01:51;8.60;;;2.33;;
61962;SDS011;47927;42.646;23.096;2023-07-20T15:04:18;7.28;;;2.40;;
61962;SDS011;47927;42.646;23.096;2023-07-20T15:06:43;7.13;;;2.13;;
61962;SDS011;47927;42.646;23.096;2023-07-20T15:09:09;10.38;;;2.00;;
61962;SDS011;47927;42.646;23.096;2023-07-20T15:11:35;6.65;;;2.40;;